Bloomington, IN

9:23 AM EST on February 10, 2016 (GMT -0500)
Bloomington - E Ramp Creek Rd | | Change Station
CLOSE
Current Station
Personal Weather Station
Location: Bloomington, IN
Elevation: 764 ft
Nearby Weather Stations
Active Advisory: Special Statement

Elev 764 ft 39.07 °N, 86.50 °W | Updated 9 minutes ago

Mostly Cloudy
Mostly Cloudy
14.7 °F
Feels Like 9 °F
N
3.7
Wind Variable Wind from West

Today
High -- | Low -- °F
--% Chance of Precip.
Yesterday
High -- | Low -- °F
Precip. -- in
Pressure 30.05 in
Visibility 10.0 miles
Clouds Overcast 1500 ft
Windchill 9 °F
Dew Point 6 °F
Humidity 68%
Rainfall 0.00 in
Snow Depth Not available.
7:43 AM 6:16 PM
Waxing Crescent, 5% visible
SPECI KBMG 101407Z 28012KT 10SM OVC015 M12/M16 A3005 RMK AO2 T11171156
Pressure 30.05 in
Visibility 10.0 miles
Clouds Overcast 1500 ft
Windchill 9 °F
Dew Point 6 °F
Humidity 68%
Rainfall 0.00 in
Snow Depth Not available.
7:43 AM 6:16 PM
Waxing Crescent, 5% visible
SPECI KBMG 101407Z 28012KT 10SM OVC015 M12/M16 A3005 RMK AO2 T11171156

10-Day Weather Forecast

Almanac

Astronomy

Feb. 10, 2016 Rise Set
Actual Time
Civil Twilight
Nautical Twilight
Astronomical Twilight
Moon
Length of Visible Light
Length of Day
Tomorrow will be .
, % of the Moon is Illuminated

Today's Extremes

State Highs State Lows

Community

WunderPhotos

Upload Photos

1,891,850 photos uploaded!

WunderBlog® & News

Nearby

Air Quality

  Air Quality AQ Index Pollutant
Not available.

Snow Depth

Station Depth Elevation

Earthquake Activity

City Distance Mag. Time & Date
Minimum magnitude displayed is 2.5.

Coastal Water Temperatures

Place Temperature

Stations

Nearby Weather Stations

Station Location Temp. Windchill Dew Point Humidity Wind Precip. Elev Updated Type
                   

Watches & Warnings

Special Statement
Issued: 3:46 AM EST Feb. 10, 2016 – National Weather Service

... Scattered snow showers ending but cold continues...

Scattered snow showers will gradually end from west to east during
the day. Roads... especially untreated ones... may be slick from
these snow showers as well as from snow that fell previously. Use
extra caution if traveling.

In addition... wind chills below zero are likely this morning and
again late tonight and Thursday morning. Be sure to bundle up if
venturing out.


50